createdAt,value
2022-10-09T00:00:35.959Z,1009
2022-10-09T00:01:36.984Z,1009.1
2022-10-09T00:02:37.990Z,1009
2022-10-09T00:03:38.953Z,1009.2
2022-10-09T00:04:40.024Z,1009.1
2022-10-09T00:05:42.022Z,1009.1
2022-10-09T00:06:42.891Z,1009.1
2022-10-09T00:07:44.930Z,1009.1
2022-10-09T00:08:46.931Z,1009.2
2022-10-09T00:09:48.011Z,1009.1
2022-10-09T00:10:49.972Z,1009.2
2022-10-09T00:11:50.920Z,1009.1
2022-10-09T00:12:52.025Z,1009.1
2022-10-09T00:13:52.918Z,1009.1
2022-10-09T00:14:53.995Z,1009.1
2022-10-09T00:15:55.007Z,1009.1
2022-10-09T00:16:56.011Z,1009.2
2022-10-09T00:17:56.922Z,1009.2
2022-10-09T00:18:59.331Z,1009.2
2022-10-09T00:20:01.078Z,1009.1
2022-10-09T00:21:02.932Z,1009.2
2022-10-09T00:22:04.924Z,1009.2
2022-10-09T00:23:05.970Z,1009.2
2022-10-09T00:24:06.928Z,1009.1
2022-10-09T00:25:08.030Z,1009.2
2022-10-09T00:26:09.911Z,1009.2
2022-10-09T00:27:10.891Z,1009.2
2022-10-09T00:28:11.995Z,1009.2
2022-10-09T00:29:12.924Z,1009.3
2022-10-09T00:30:14.038Z,1009.2
2022-10-09T00:31:16.078Z,1009.3
2022-10-09T00:32:17.950Z,1009.3
2022-10-09T00:33:19.892Z,1009.3
2022-10-09T00:34:20.929Z,1009.3
2022-10-09T00:35:22.054Z,1009.3
2022-10-09T00:36:23.938Z,1009.3
2022-10-09T00:37:24.930Z,1009.3
2022-10-09T00:38:25.929Z,1009.3
2022-10-09T00:39:26.930Z,1009
2022-10-09T00:40:27.951Z,1009.3
2022-10-09T00:41:29.972Z,1009.4
2022-10-09T00:42:31.950Z,1009.4
2022-10-09T00:43:32.993Z,1009.4
2022-10-09T00:44:35.020Z,1009.4
2022-10-09T00:45:37.011Z,1009.4
2022-10-09T00:46:37.978Z,1009.4
2022-10-09T00:47:38.911Z,1009.4
2022-10-09T00:48:39.990Z,1009.3
2022-10-09T00:49:40.943Z,1009.3
2022-10-09T00:50:41.976Z,1009.4
2022-10-09T00:51:42.970Z,1009.4
2022-10-09T00:52:44.990Z,1009.4
2022-10-09T00:53:47.051Z,1009.4
2022-10-09T00:54:48.934Z,1009.4
2022-10-09T00:55:49.978Z,1009.4
2022-10-09T00:56:51.020Z,1009.4
2022-10-09T00:57:52.011Z,1009.4
2022-10-09T00:58:54.038Z,1009.4
2022-10-09T00:59:56.130Z,1009.3
2022-10-09T01:00:58.043Z,1009.4
2022-10-09T01:02:00.224Z,1009.3
2022-10-09T01:03:01.984Z,1009.4
2022-10-09T01:04:02.919Z,1009.4
2022-10-09T01:05:04.061Z,1009.4
2022-10-09T01:06:06.019Z,1009.5
2022-10-09T01:07:06.923Z,1009.5
2022-10-09T01:08:07.950Z,1009.5
2022-10-09T01:09:08.975Z,1009.5
2022-10-09T01:10:10.050Z,1009.5
2022-10-09T01:11:11.920Z,1009.5
2022-10-09T01:12:13.012Z,1009.6
2022-10-09T01:13:15.010Z,1009.5
2022-10-09T01:14:16.952Z,1009.5
2022-10-09T01:15:18.067Z,1009.5
2022-10-09T01:16:23.576Z,1009.5
2022-10-09T01:17:21.021Z,1009.6
2022-10-09T01:18:22.018Z,1009.6
2022-10-09T01:19:22.950Z,1009.6
2022-10-09T01:20:24.080Z,1009.6
2022-10-09T01:21:26.074Z,1009.6
2022-10-09T01:22:26.991Z,1009.6
2022-10-09T01:23:27.931Z,1009.6
2022-10-09T01:24:29.990Z,1009.6
2022-10-09T01:25:32.011Z,1009.6
2022-10-09T01:26:32.930Z,1009.6
2022-10-09T01:27:33.914Z,1009.6
2022-10-09T01:28:35.004Z,1009.7
2022-10-09T01:29:36.051Z,1009.7
2022-10-09T01:30:38.100Z,1009.7
2022-10-09T01:31:39.961Z,1009.7
2022-10-09T01:32:40.950Z,1009.7
2022-10-09T01:33:42.030Z,1009.7
2022-10-09T01:34:42.990Z,1009.7
2022-10-09T01:35:43.935Z,1009.7
2022-10-09T01:36:45.035Z,1009.8
2022-10-09T01:37:45.931Z,1009.8
2022-10-09T01:38:46.996Z,1009.8
2022-10-09T01:39:47.987Z,1009.8
2022-10-09T01:40:48.926Z,1009.8
2022-10-09T01:41:50.012Z,1009.8
2022-10-09T01:42:51.237Z,1009.8
2022-10-09T01:43:51.995Z,1009.8
2022-10-09T01:44:53.036Z,1009.8
2022-10-09T01:45:54.003Z,1009.8
2022-10-09T01:46:55.011Z,1009.9
2022-10-09T01:47:56.051Z,1009.8
2022-10-09T01:49:01.027Z,1009.8
2022-10-09T01:50:02.112Z,1009.8
2022-10-09T01:51:04.030Z,1009.8
2022-10-09T01:52:06.058Z,1009.8
2022-10-09T01:53:07.058Z,1009.8
2022-10-09T01:54:09.049Z,1009.8
2022-10-09T01:55:10.053Z,1009.9
2022-10-09T01:56:12.012Z,1009.9
2022-10-09T01:57:12.959Z,1009.9
2022-10-09T01:58:13.991Z,1009.9
2022-10-09T01:59:16.131Z,1009.8
2022-10-09T02:03:15.055Z,1009.8
2022-10-09T02:04:17.113Z,1009.8
2022-10-09T02:05:19.103Z,1009.8
2022-10-09T02:06:20.954Z,1009.8
2022-10-09T02:07:22.025Z,1009.8
2022-10-09T02:08:23.052Z,1009.9
2022-10-09T02:09:24.035Z,1010
2022-10-09T02:10:25.033Z,1009.9
2022-10-09T02:11:26.053Z,1009.9
2022-10-09T02:12:27.953Z,1009.9
2022-10-09T02:13:28.974Z,1009.9
2022-10-09T02:14:29.993Z,1009.8
2022-10-09T02:15:31.158Z,1009.8
2022-10-09T02:16:36.256Z,1009.9
2022-10-09T02:17:32.986Z,1009.9
2022-10-09T02:18:34.022Z,1009.9
2022-10-09T02:19:35.014Z,1009.9
2022-10-09T02:20:35.993Z,1009.9
2022-10-09T02:21:37.021Z,1009.9
2022-10-09T02:22:37.959Z,1009.9
2022-10-09T02:23:39.033Z,1009.9
2022-10-09T02:24:40.054Z,1009.9
2022-10-09T02:25:41.015Z,1010
2022-10-09T02:26:41.956Z,1009.9
2022-10-09T02:27:43.053Z,1010
2022-10-09T02:28:46.069Z,1010
2022-10-09T02:29:46.113Z,1010
2022-10-09T02:30:48.044Z,1010
2022-10-09T02:31:48.993Z,1010
2022-10-09T02:32:50.228Z,1010
2022-10-09T02:33:51.002Z,1010.1
2022-10-09T02:34:52.096Z,1010.1
2022-10-09T02:35:53.955Z,1010.1
2022-10-09T02:36:55.016Z,1010.1
2022-10-09T02:37:56.069Z,1010.1
2022-10-09T02:38:56.952Z,1009.8
2022-10-09T02:39:57.999Z,1010
2022-10-09T02:40:59.993Z,1010.2
2022-10-09T02:42:01.977Z,1010
2022-10-09T02:43:02.988Z,1010.2
2022-10-09T02:44:05.034Z,1010.2
2022-10-09T02:45:06.033Z,1010.2
2022-10-09T02:46:07.089Z,1010.2
2022-10-09T02:47:07.961Z,1010.3
2022-10-09T02:48:09.030Z,1010.3
2022-10-09T02:49:10.083Z,1010.3
2022-10-09T02:50:11.059Z,1010.3
2022-10-09T02:51:11.993Z,1010.3
2022-10-09T02:52:12.974Z,1010.4
2022-10-09T02:53:14.019Z,1010.5
2022-10-09T02:54:15.093Z,1010.4
2022-10-09T02:55:16.033Z,1010.5
2022-10-09T02:56:16.973Z,1010.5
2022-10-09T02:57:17.954Z,1010.4
2022-10-09T02:58:19.034Z,1010.5
2022-10-09T02:59:20.093Z,1010.4
2022-10-09T03:00:22.114Z,1010.4
2022-10-09T03:01:24.091Z,1010.4
2022-10-09T03:02:25.326Z,1010.4
2022-10-09T03:03:27.033Z,1010.4
2022-10-09T03:04:27.986Z,1010.4
2022-10-09T03:05:30.092Z,1010.4
2022-10-09T03:06:32.014Z,1010.4
2022-10-09T03:07:33.032Z,1010.4
2022-10-09T03:08:34.058Z,1010.4
2022-10-09T03:09:35.035Z,1010.5
2022-10-09T03:10:36.033Z,1010.4
2022-10-09T03:11:37.053Z,1010.4
2022-10-09T03:12:38.074Z,1010.4
2022-10-09T03:13:39.035Z,1010.5
2022-10-09T03:14:40.040Z,1010.5
2022-10-09T03:15:41.066Z,1010.5
2022-10-09T03:16:42.073Z,1010.5
2022-10-09T03:17:44.036Z,1009.9
2022-10-09T03:18:45.990Z,1010.3
2022-10-09T03:19:47.073Z,1010.5
2022-10-09T03:20:48.034Z,1010.5
2022-10-09T03:21:48.954Z,1010.5
2022-10-09T03:22:50.247Z,1010.6
2022-10-09T03:23:52.061Z,1010.6
2022-10-09T03:24:53.053Z,1010.6
2022-10-09T03:25:54.041Z,1010.6
2022-10-09T03:26:55.057Z,1010.7
2022-10-09T03:27:56.013Z,1010.6
2022-10-09T03:28:57.042Z,1010.6
2022-10-09T03:29:58.013Z,1010
2022-10-09T03:30:59.070Z,1010.5
2022-10-09T03:32:00.171Z,1010.7
2022-10-09T03:33:02.073Z,1010.7
2022-10-09T03:34:02.994Z,1010.7
2022-10-09T03:35:04.013Z,1010.7
2022-10-09T03:36:04.993Z,1010.7
2022-10-09T03:37:06.100Z,1010.7
2022-10-09T03:38:08.054Z,1010.7
2022-10-09T03:39:09.202Z,1010.7
2022-10-09T03:40:10.074Z,1010.8
2022-10-09T03:41:11.021Z,1010.8
2022-10-09T03:42:12.072Z,1010.8
2022-10-09T03:43:12.994Z,1010.8
2022-10-09T03:44:14.075Z,1010.8
2022-10-09T03:45:16.033Z,1010.9
2022-10-09T03:46:17.051Z,1010.8
2022-10-09T03:47:18.104Z,1010.8
2022-10-09T03:48:19.014Z,1010.9
2022-10-09T03:49:20.054Z,1010.9
2022-10-09T03:50:21.001Z,1010.9
2022-10-09T03:51:22.156Z,1010.9
2022-10-09T03:52:24.181Z,1010.9
2022-10-09T03:53:26.080Z,1010.8
2022-10-09T03:54:28.080Z,1010.9
2022-10-09T03:55:30.055Z,1010.9
2022-10-09T03:56:32.035Z,1010.9
2022-10-09T03:57:33.055Z,1010.9
2022-10-09T03:58:34.035Z,1010.9
2022-10-09T03:59:35.094Z,1010.9
2022-10-09T04:00:36.034Z,1010.9
2022-10-09T04:01:37.133Z,1011
2022-10-09T04:02:38.047Z,1010.9
2022-10-09T04:03:39.013Z,1010.9
2022-10-09T04:04:40.622Z,1011
2022-10-09T04:05:42.033Z,1011
2022-10-09T04:06:43.055Z,1011
2022-10-09T04:07:44.076Z,1011
2022-10-09T04:08:45.995Z,1011
2022-10-09T04:09:47.142Z,1011
2022-10-09T04:10:49.037Z,1011
2022-10-09T04:11:51.094Z,1011
2022-10-09T04:12:52.994Z,1011
2022-10-09T04:13:54.114Z,1011
2022-10-09T04:14:55.094Z,1011.1
2022-10-09T04:15:56.120Z,1011
2022-10-09T04:16:57.117Z,1011.1
2022-10-09T04:17:58.014Z,1011.1
2022-10-09T04:18:59.074Z,1011.1
2022-10-09T04:20:01.055Z,1011.1
2022-10-09T04:21:02.014Z,1011.1
2022-10-09T04:22:03.134Z,1011.1
2022-10-09T04:23:04.033Z,1011.1
2022-10-09T04:24:05.074Z,1011.1
2022-10-09T04:25:06.166Z,1011.1
2022-10-09T04:26:08.077Z,1011.1
2022-10-09T04:27:09.162Z,1011.2
2022-10-09T04:28:11.114Z,1011.1
2022-10-09T04:29:12.016Z,1011.1
2022-10-09T04:30:13.054Z,1011.2
2022-10-09T04:31:14.158Z,1011.1
2022-10-09T04:32:16.089Z,1011.1
2022-10-09T04:33:18.075Z,1011.1
2022-10-09T04:34:19.034Z,1011.2
2022-10-09T04:35:20.033Z,1011.1
2022-10-09T04:36:20.994Z,1011.2
2022-10-09T04:37:22.073Z,1011.2
2022-10-09T04:38:23.054Z,1011.2
2022-10-09T04:39:25.515Z,1011.2
2022-10-09T04:40:27.098Z,1011.2
2022-10-09T04:41:28.056Z,1011.2
2022-10-09T04:42:29.154Z,1011.3
2022-10-09T04:43:31.094Z,1011.2
2022-10-09T04:44:33.094Z,1011.3
2022-10-09T04:45:34.135Z,1011.3
2022-10-09T04:46:35.099Z,1011.3
2022-10-09T04:47:36.043Z,1011.3
2022-10-09T04:48:37.073Z,1011.3
2022-10-09T04:49:38.115Z,1011.3
2022-10-09T04:50:39.040Z,1011.3
2022-10-09T04:51:40.115Z,1011.3
2022-10-09T04:52:41.055Z,1011.3
2022-10-09T04:53:42.033Z,1011.3
2022-10-09T04:54:43.134Z,1011.3
2022-10-09T04:55:44.099Z,1011.3
2022-10-09T04:56:45.054Z,1011.3
2022-10-09T04:57:46.095Z,1011.3
2022-10-09T04:58:47.095Z,1011.4
2022-10-09T04:59:48.155Z,1011.3
2022-10-09T05:00:49.185Z,1011.3
2022-10-09T05:01:50.053Z,1011.3
2022-10-09T05:02:51.567Z,1010.6
2022-10-09T05:03:53.116Z,1011.2
2022-10-09T05:04:54.095Z,1011.4
2022-10-09T05:05:55.094Z,1011.4
2022-10-09T05:06:56.573Z,1011.4
2022-10-09T05:07:58.095Z,1011.4
2022-10-09T05:09:00.137Z,1011.5
2022-10-09T05:10:02.124Z,1010.8
2022-10-09T05:11:03.158Z,1011.4
2022-10-09T05:12:05.163Z,1011.4
2022-10-09T05:13:07.156Z,1011.5
2022-10-09T05:14:09.079Z,1011.5
2022-10-09T05:15:10.176Z,1011.5
2022-10-09T05:16:12.235Z,1011.5
2022-10-09T05:17:15.047Z,1011.6
2022-10-09T05:18:16.094Z,1011.5
2022-10-09T05:19:18.094Z,1011.5
2022-10-09T05:20:19.078Z,1011.5
2022-10-09T05:21:20.180Z,1011.6
2022-10-09T05:22:22.134Z,1011.6
2022-10-09T05:23:24.035Z,1011.6
2022-10-09T05:24:25.114Z,1011.6
2022-10-09T05:25:26.277Z,1011.6
2022-10-09T05:26:28.180Z,1011.6
2022-10-09T05:27:30.075Z,1011.6
2022-10-09T05:28:32.166Z,1011.6
2022-10-09T05:29:34.113Z,1011.6
2022-10-09T05:30:36.098Z,1011.6
2022-10-09T05:31:37.178Z,1011.6
2022-10-09T05:32:39.138Z,1011.5
2022-10-09T05:33:40.195Z,1011.7
2022-10-09T05:34:42.154Z,1011.6
2022-10-09T05:35:44.121Z,1011.7
2022-10-09T05:36:46.134Z,1011.6
2022-10-09T05:37:48.196Z,1011.7
2022-10-09T05:38:50.153Z,1011.6
2022-10-09T05:39:52.174Z,1011.6
2022-10-09T05:40:54.134Z,1011.7
2022-10-09T05:41:56.299Z,1011.7
2022-10-09T05:42:58.114Z,1011.7
2022-10-09T05:43:59.122Z,1011.7
2022-10-09T05:45:00.113Z,1011.7
2022-10-09T05:46:01.203Z,1011.7
2022-10-09T05:47:03.159Z,1011.7
2022-10-09T05:48:04.094Z,1011.7
2022-10-09T05:49:05.065Z,1011.7
2022-10-09T05:50:06.155Z,1011.7
2022-10-09T05:51:07.075Z,1011.7
2022-10-09T05:52:08.097Z,1011.7
2022-10-09T05:53:09.182Z,1011.7
2022-10-09T05:54:10.160Z,1011.7
2022-10-09T05:55:12.116Z,1011.7
2022-10-09T05:56:14.118Z,1011.7
2022-10-09T05:57:16.221Z,1011.7
2022-10-09T05:58:18.115Z,1011.8
2022-10-09T05:59:19.080Z,1011.8
2022-10-09T06:00:20.560Z,1011.8
2022-10-09T06:01:22.251Z,1011.9
2022-10-09T06:02:24.245Z,1011.9
2022-10-09T06:03:26.048Z,1011.8
2022-10-09T06:04:27.117Z,1011.8
2022-10-09T06:05:28.153Z,1011.9
2022-10-09T06:06:29.091Z,1011.8
2022-10-09T06:07:30.054Z,1011.8
2022-10-09T06:08:31.101Z,1011.9
2022-10-09T06:09:32.061Z,1011.9
2022-10-09T06:10:33.196Z,1011.9
2022-10-09T06:11:34.054Z,1011.9
2022-10-09T06:12:35.043Z,1011.9
2022-10-09T06:13:36.103Z,1011.9
2022-10-09T06:14:37.094Z,1011.9
2022-10-09T06:15:38.121Z,1011.9
2022-10-09T06:16:39.124Z,1011.9
2022-10-09T06:17:43.115Z,1011.9
2022-10-09T06:18:48.789Z,1012
2022-10-09T06:19:47.226Z,1012
2022-10-09T06:20:49.230Z,1012
2022-10-09T06:21:51.134Z,1012
2022-10-09T06:22:53.153Z,1012
2022-10-09T06:23:55.255Z,1012.1
2022-10-09T06:24:57.222Z,1012.1
2022-10-09T06:25:59.153Z,1012.1
2022-10-09T06:27:01.454Z,1012.2
2022-10-09T06:28:03.251Z,1012.2
2022-10-09T06:29:04.096Z,1012.2
2022-10-09T06:30:05.296Z,1012.2
2022-10-09T06:31:06.206Z,1012.1
2022-10-09T06:32:08.154Z,1012.1
2022-10-09T06:33:10.093Z,1012.2
2022-10-09T06:34:11.114Z,1012.2
2022-10-09T06:35:15.015Z,1012.2
2022-10-09T06:36:17.116Z,1012.2
2022-10-09T06:37:18.119Z,1012.2
2022-10-09T06:38:19.113Z,1012.2
2022-10-09T06:39:20.095Z,1012.2
2022-10-09T06:40:21.142Z,1012.2
2022-10-09T06:41:22.313Z,1012.2
2022-10-09T06:42:24.121Z,1012.2
2022-10-09T06:43:26.141Z,1012.3
2022-10-09T06:44:27.088Z,1012.3
2022-10-09T06:45:28.160Z,1012.3
2022-10-09T06:46:29.118Z,1012.2
2022-10-09T06:47:30.195Z,1012.3
2022-10-09T06:48:32.082Z,1012.2
2022-10-09T06:49:33.079Z,1012.2
2022-10-09T06:50:34.091Z,1012.3
2022-10-09T06:51:36.099Z,1012.3
2022-10-09T06:52:37.122Z,1012.3
2022-10-09T06:53:39.103Z,1012.3
2022-10-09T06:54:41.080Z,1012.3
2022-10-09T06:55:42.135Z,1012.3
2022-10-09T06:56:43.174Z,1012.3
2022-10-09T06:57:45.194Z,1012.3
2022-10-09T06:58:47.264Z,1012.3
2022-10-09T06:59:49.243Z,1012.3
2022-10-09T07:00:51.144Z,1012.3
2022-10-09T07:01:53.277Z,1012.3
2022-10-09T07:02:55.257Z,1012.3
2022-10-09T07:03:57.467Z,1012.3
2022-10-09T07:04:59.083Z,1012.4
2022-10-09T07:06:00.215Z,1012.4
2022-10-09T07:07:02.153Z,1012.4
2022-10-09T07:08:03.105Z,1012.4
2022-10-09T07:09:05.202Z,1012.4
2022-10-09T07:10:07.142Z,1012.4
2022-10-09T07:11:08.239Z,1012.5
2022-10-09T07:12:10.177Z,1012.5
2022-10-09T07:13:12.117Z,1012.5
2022-10-09T07:14:13.171Z,1012.5
2022-10-09T07:15:14.138Z,1012.5
2022-10-09T07:16:15.139Z,1012.5
2022-10-09T07:17:17.139Z,1012.6
2022-10-09T07:18:19.314Z,1012.5
2022-10-09T07:19:21.078Z,1012.5
2022-10-09T07:20:23.122Z,1012.5
2022-10-09T07:21:26.954Z,1012.5
2022-10-09T07:22:30.354Z,1012.5
2022-10-09T07:23:32.106Z,1012.5
2022-10-09T07:24:33.073Z,1012.5
2022-10-09T07:25:34.165Z,1012.5
2022-10-09T07:26:35.102Z,1012.5
2022-10-09T07:27:36.128Z,1012.5
2022-10-09T07:28:37.192Z,1012.5
2022-10-09T07:29:39.218Z,1012.5
2022-10-09T07:30:41.145Z,1012.6
2022-10-09T07:31:42.105Z,1012.5
2022-10-09T07:32:43.141Z,1012.5
2022-10-09T07:33:44.436Z,1012.5
2022-10-09T07:34:46.407Z,1012.6
2022-10-09T07:35:48.584Z,1012.6
2022-10-09T07:36:50.362Z,1012.7
2022-10-09T07:37:52.403Z,1012.6
2022-10-09T07:38:54.537Z,1012.6
2022-10-09T07:39:56.534Z,1012.6
2022-10-09T07:40:58.962Z,1012.6
2022-10-09T07:42:01.746Z,1012.6
2022-10-09T07:43:04.078Z,1012.7
2022-10-09T07:44:05.074Z,1012.7
2022-10-09T07:45:06.162Z,1012.7
2022-10-09T07:46:07.250Z,1012.7
2022-10-09T07:47:09.153Z,1012.7
2022-10-09T07:48:11.191Z,1012.7
2022-10-09T07:49:13.169Z,1012.7
2022-10-09T07:50:15.219Z,1012.7
2022-10-09T07:51:17.192Z,1012.7
2022-10-09T07:52:19.218Z,1012.7
2022-10-09T07:53:21.934Z,1012.7
2022-10-09T07:54:24.540Z,1012.7
2022-10-09T07:55:26.534Z,1012.8
2022-10-09T07:56:28.859Z,1012.8
2022-10-09T07:57:31.695Z,1012.8
2022-10-09T07:58:34.076Z,1012.8
2022-10-09T07:59:36.470Z,1012.8
2022-10-09T08:00:38.488Z,1012.8
2022-10-09T08:01:41.599Z,1012.7
2022-10-09T08:02:43.449Z,1012.7
2022-10-09T08:03:45.373Z,1012.7
2022-10-09T08:04:47.634Z,1012.7
2022-10-09T08:05:49.694Z,1012.7
2022-10-09T08:06:51.561Z,1012.7
2022-10-09T08:07:53.714Z,1012.7
2022-10-09T08:08:55.242Z,1012.8
2022-10-09T08:09:57.233Z,1012.7
2022-10-09T08:10:59.211Z,1012.8
2022-10-09T08:12:01.162Z,1012.8
2022-10-09T08:13:03.235Z,1012.7
2022-10-09T08:14:05.190Z,1012.7
2022-10-09T08:15:07.174Z,1012.8
2022-10-09T08:16:08.280Z,1012.8
2022-10-09T08:17:09.174Z,1012.8
2022-10-09T08:18:10.194Z,1012.8
2022-10-09T08:19:11.233Z,1012.7
2022-10-09T08:20:12.140Z,1012.8
2022-10-09T08:21:13.175Z,1012.8
2022-10-09T08:22:15.157Z,1012.8
2022-10-09T08:23:17.255Z,1012.8
2022-10-09T08:24:19.236Z,1012.8
2022-10-09T08:25:21.174Z,1012.8
2022-10-09T08:26:22.254Z,1012.8
2022-10-09T08:27:25.995Z,1012.8
2022-10-09T08:28:29.721Z,1012.8
2022-10-09T08:29:34.615Z,1012.8
2022-10-09T08:30:34.122Z,1012.8
2022-10-09T08:31:35.237Z,1012.8
2022-10-09T08:32:36.100Z,1012.7
2022-10-09T08:33:37.214Z,1012.8
2022-10-09T08:34:39.213Z,1012.8
2022-10-09T08:35:41.355Z,1012.9
2022-10-09T08:36:43.194Z,1012.8
2022-10-09T08:37:45.178Z,1012.9
2022-10-09T08:38:48.264Z,1012.9
2022-10-09T08:39:49.254Z,1012.8
2022-10-09T08:40:53.827Z,1012.8
2022-10-09T08:41:53.214Z,1012.8
2022-10-09T08:42:55.212Z,1012.8
2022-10-09T08:43:57.255Z,1012.8
2022-10-09T08:44:59.195Z,1012.8
2022-10-09T08:46:01.303Z,1012.8
2022-10-09T08:47:03.257Z,1012.9
2022-10-09T08:48:05.215Z,1012.9
2022-10-09T08:49:07.204Z,1012.9
2022-10-09T08:50:09.330Z,1012.9
2022-10-09T08:51:11.318Z,1012.9
2022-10-09T08:52:13.253Z,1012.8
2022-10-09T08:53:15.308Z,1012.9
2022-10-09T08:54:17.435Z,1012.9
2022-10-09T08:55:19.284Z,1012.9
2022-10-09T08:56:21.293Z,1012.9
2022-10-09T08:57:23.260Z,1012.9
2022-10-09T08:58:25.275Z,1012.9
2022-10-09T08:59:27.316Z,1012.9
2022-10-09T09:00:29.298Z,1012.9
2022-10-09T09:01:31.318Z,1012.9
2022-10-09T09:02:33.230Z,1012.9
2022-10-09T09:03:34.245Z,1012.9
2022-10-09T09:04:35.236Z,1012.9
2022-10-09T09:05:36.216Z,1012.9
2022-10-09T09:06:37.193Z,1012.9
2022-10-09T09:07:38.262Z,1012.6
2022-10-09T09:08:40.254Z,1012.9
2022-10-09T09:09:41.328Z,1012.9
2022-10-09T09:10:43.152Z,1012.9
2022-10-09T09:11:44.255Z,1012.9
2022-10-09T09:12:46.574Z,1012.9
2022-10-09T09:13:48.151Z,1012.9
2022-10-09T09:14:49.253Z,1012.9
2022-10-09T09:15:51.343Z,1012.9
2022-10-09T09:16:53.215Z,1012.9
2022-10-09T09:17:54.291Z,1012.9
2022-10-09T09:18:56.215Z,1012.9
2022-10-09T09:19:57.252Z,1012.9
2022-10-09T09:20:58.313Z,1012.9
2022-10-09T09:22:00.296Z,1012.9
2022-10-09T09:23:02.791Z,1012.9
2022-10-09T09:24:04.189Z,1012.9
2022-10-09T09:25:06.274Z,1012.9
2022-10-09T09:26:08.287Z,1012.9
2022-10-09T09:27:10.315Z,1012.9
2022-10-09T09:28:12.662Z,1012.9
2022-10-09T09:29:14.207Z,1012.9
2022-10-09T09:30:21.328Z,1012.9
2022-10-09T09:31:23.282Z,1012.9
2022-10-09T09:32:25.259Z,1012.9
2022-10-09T09:33:27.239Z,1012.9
2022-10-09T09:34:28.255Z,1012.9
2022-10-09T09:35:29.194Z,1012.9
2022-10-09T09:36:30.242Z,1012.9
2022-10-09T09:37:31.337Z,1012.9
2022-10-09T09:38:33.294Z,1012.8
2022-10-09T09:40:38.524Z,1012.9
2022-10-09T09:41:39.174Z,1012.9
2022-10-09T09:42:41.399Z,1012.8
2022-10-09T09:43:43.260Z,1012.8
2022-10-09T09:44:44.274Z,1012.9
2022-10-09T09:45:46.233Z,1012.8
2022-10-09T09:46:48.372Z,1012.8
2022-10-09T09:47:50.464Z,1012.8
2022-10-09T09:48:51.301Z,1012.8
2022-10-09T09:49:53.256Z,1012.8
2022-10-09T09:51:15.991Z,1012.8
2022-10-09T09:51:57.226Z,1012.8
2022-10-09T09:52:59.297Z,1012.8
2022-10-09T09:54:02.294Z,1012.8
2022-10-09T09:55:04.276Z,1012.8
2022-10-09T09:56:06.274Z,1012.9
2022-10-09T09:57:13.138Z,1012.8
2022-10-09T09:58:49.055Z,1012.9
2022-10-09T09:59:51.093Z,1012.9
2022-10-09T10:00:53.058Z,1012.9
2022-10-09T10:01:55.152Z,1012.9
2022-10-09T10:02:57.022Z,1013
2022-10-09T10:03:58.022Z,1012.9
2022-10-09T10:04:59.985Z,1012.8
2022-10-09T10:06:01.060Z,1012.8
2022-10-09T10:07:03.033Z,1012.8
2022-10-09T10:08:05.016Z,1012.8
2022-10-09T10:09:07.073Z,1012.8
2022-10-09T10:10:09.055Z,1012.8
2022-10-09T10:11:11.076Z,1012.8
2022-10-09T10:12:13.044Z,1012.9
2022-10-09T10:13:14.994Z,1012.9
2022-10-09T10:14:16.054Z,1012.8
2022-10-09T10:15:18.014Z,1012.8
2022-10-09T10:16:20.173Z,1012.8
2022-10-09T10:17:21.015Z,1012.8
2022-10-09T10:18:23.014Z,1012.8
2022-10-09T10:19:24.063Z,1012.8
2022-10-09T10:20:25.143Z,1012.9
2022-10-09T10:21:27.113Z,1012.8
2022-10-09T10:22:29.047Z,1012.8
2022-10-09T10:23:31.018Z,1012.8
2022-10-09T10:24:33.085Z,1012.7
2022-10-09T10:25:35.096Z,1012.7
2022-10-09T10:26:37.113Z,1012.8
2022-10-09T10:27:39.012Z,1012.8
2022-10-09T10:28:41.094Z,1012.8
2022-10-09T10:29:43.123Z,1012.8
2022-10-09T10:30:45.034Z,1012.9
2022-10-09T10:31:47.111Z,1012.8
2022-10-09T10:32:49.156Z,1012.8
2022-10-09T10:33:51.038Z,1012.8
2022-10-09T10:34:53.122Z,1012.7
2022-10-09T10:35:55.091Z,1012.8
2022-10-09T10:36:59.781Z,1012.8
2022-10-09T10:37:58.298Z,1012.7
2022-10-09T10:39:00.001Z,1012.8
2022-10-09T10:40:02.165Z,1012.8
2022-10-09T10:41:04.037Z,1012.8
2022-10-09T10:42:06.122Z,1012.8
2022-10-09T10:43:08.200Z,1012.8
2022-10-09T10:44:10.081Z,1012.8
2022-10-09T10:45:14.044Z,1012.8
2022-10-09T10:46:16.073Z,1012.8
2022-10-09T10:47:17.974Z,1012.7
2022-10-09T10:48:20.326Z,1012.8
2022-10-09T10:49:22.093Z,1012.9
2022-10-09T10:50:24.024Z,1012.9
2022-10-09T10:51:25.005Z,1012.9
2022-10-09T10:52:25.985Z,1012.9
2022-10-09T10:53:27.075Z,1012.9
2022-10-09T10:54:29.030Z,1012.9
2022-10-09T10:55:31.062Z,1012.9
2022-10-09T10:56:33.054Z,1012.9
2022-10-09T10:57:35.111Z,1012.8
2022-10-09T10:58:37.096Z,1012.8
2022-10-09T10:59:39.145Z,1012.8
2022-10-09T11:00:41.171Z,1012.8
2022-10-09T11:01:43.114Z,1012.9
2022-10-09T11:02:45.028Z,1012.9
2022-10-09T11:03:47.251Z,1012.9
2022-10-09T11:04:49.093Z,1012.9
2022-10-09T11:05:51.098Z,1012.9
2022-10-09T11:06:53.172Z,1012.9
2022-10-09T11:07:57.851Z,1012.8
2022-10-09T11:09:00.021Z,1012.8
2022-10-09T11:10:02.091Z,1012.8
2022-10-09T11:11:04.113Z,1012.8
2022-10-09T11:12:06.089Z,1012.8
2022-10-09T11:13:08.167Z,1012.8
2022-10-09T11:14:10.087Z,1012.8
2022-10-09T11:15:12.209Z,1012.7
2022-10-09T11:16:14.205Z,1012.8
2022-10-09T11:17:16.083Z,1012.8
2022-10-09T11:18:18.144Z,1012.7
2022-10-09T11:19:20.052Z,1012.7
2022-10-09T11:20:21.106Z,1012.7
2022-10-09T11:21:22.108Z,1012.7
2022-10-09T11:22:24.068Z,1012.7
2022-10-09T11:23:25.052Z,1012.7
2022-10-09T11:24:26.170Z,1012.7
2022-10-09T11:25:28.180Z,1012.7
2022-10-09T11:26:30.064Z,1012.7
2022-10-09T11:27:32.092Z,1012.7
2022-10-09T11:28:34.202Z,1012.7
2022-10-09T11:29:35.184Z,1012.7
2022-10-09T11:30:37.145Z,1012.7
2022-10-09T11:31:39.140Z,1012.7
2022-10-09T11:33:42.003Z,1012.7
2022-10-09T11:34:44.149Z,1012.7
2022-10-09T11:35:45.998Z,1012.7
2022-10-09T11:36:48.217Z,1012.6
2022-10-09T11:37:50.458Z,1012.6
2022-10-09T11:38:52.131Z,1012.6
2022-10-09T11:39:54.038Z,1012.6
2022-10-09T11:40:55.122Z,1012.6
2022-10-09T11:41:56.052Z,1012.6
2022-10-09T11:42:57.152Z,1012.6
2022-10-09T11:43:59.133Z,1012.6
2022-10-09T11:45:01.077Z,1012.6
2022-10-09T11:46:03.709Z,1012.6
2022-10-09T11:47:08.864Z,1012.6
2022-10-09T11:48:06.133Z,1012.6
2022-10-09T11:49:08.273Z,1012.6
2022-10-09T11:50:10.177Z,1012.6
2022-10-09T11:51:12.134Z,1012.6
2022-10-09T11:52:14.194Z,1012.6
2022-10-09T11:53:16.222Z,1012.6
2022-10-09T11:54:18.102Z,1012.6
2022-10-09T11:55:20.077Z,1012.5
2022-10-09T11:56:20.983Z,1012.5
2022-10-09T11:57:22.093Z,1012.4
2022-10-09T11:58:23.094Z,1012.4
2022-10-09T11:59:24.116Z,1012.5
2022-10-09T12:00:26.114Z,1012.5
2022-10-09T12:01:27.121Z,1012.4
2022-10-09T12:02:29.281Z,1012.4
2022-10-09T12:03:31.110Z,1012.4
2022-10-09T12:04:56.174Z,1012.4
2022-10-09T12:05:35.058Z,1012.4
2022-10-09T12:06:36.014Z,1012.3
2022-10-09T12:08:39.168Z,1012.2
2022-10-09T12:09:41.075Z,1012.3
2022-10-09T12:10:43.114Z,1012.3
2022-10-09T12:11:45.055Z,1012.3
2022-10-09T12:12:47.419Z,1012.3
2022-10-09T12:13:49.192Z,1012.2
2022-10-09T12:14:51.076Z,1012.2
2022-10-09T12:15:53.154Z,1012.2
2022-10-09T12:16:54.153Z,1012.2
2022-10-09T12:17:55.086Z,1012.2
2022-10-09T12:18:56.354Z,1012.2
2022-10-09T12:20:01.005Z,1012.1
2022-10-09T12:21:00.219Z,1012.1
2022-10-09T12:22:01.035Z,1012.1
2022-10-09T12:23:24.931Z,1012.1
2022-10-09T12:24:04.215Z,1012.1
2022-10-09T12:25:06.107Z,1012.2
2022-10-09T12:26:08.173Z,1012.1
2022-10-09T12:27:10.113Z,1012.1
2022-10-09T12:28:11.162Z,1012.1
2022-10-09T12:29:13.134Z,1012.1
2022-10-09T12:30:14.315Z,1012.1
2022-10-09T12:31:15.122Z,1012.1
2022-10-09T12:32:16.141Z,1012.1
2022-10-09T12:33:18.233Z,1012.1
2022-10-09T12:34:20.161Z,1012
2022-10-09T12:35:22.185Z,1012
2022-10-09T12:36:24.055Z,1012
2022-10-09T12:37:25.095Z,1012.1
2022-10-09T12:38:26.130Z,1012
2022-10-09T12:39:27.194Z,1012
2022-10-09T12:40:29.203Z,1012
2022-10-09T12:41:31.164Z,1012
2022-10-09T12:42:33.158Z,1012
2022-10-09T12:43:35.193Z,1012
2022-10-09T12:44:37.274Z,1012
2022-10-09T12:45:39.292Z,1011.9
2022-10-09T12:46:41.234Z,1011.9
2022-10-09T12:47:43.234Z,1011.9
2022-10-09T12:48:45.173Z,1011.9
2022-10-09T12:49:47.115Z,1011.9
2022-10-09T12:50:49.099Z,1011.9
2022-10-09T12:51:51.350Z,1011.9
2022-10-09T12:52:51.668Z,1011.9
2022-10-09T12:53:52.168Z,1011.9
2022-10-09T12:54:54.093Z,1011.9
2022-10-09T12:55:55.121Z,1011.9
2022-10-09T12:56:56.334Z,1011.9
2022-10-09T12:57:58.111Z,1011.8